createdAt,value
2018-09-21T00:01:02.346Z,16.70
2018-09-21T00:03:05.804Z,16.60
2018-09-21T00:05:08.821Z,16.60
2018-09-21T00:07:13.474Z,16.60
2018-09-21T00:09:16.455Z,16.60
2018-09-21T00:11:19.877Z,16.60
2018-09-21T00:13:22.881Z,16.60
2018-09-21T00:15:25.936Z,16.60
2018-09-21T00:17:29.012Z,16.60
2018-09-21T00:19:32.048Z,16.60
2018-09-21T00:21:35.133Z,16.60
2018-09-21T00:23:38.438Z,16.60
2018-09-21T00:25:42.101Z,16.60
2018-09-21T00:27:45.529Z,16.50
2018-09-21T00:29:48.508Z,16.50
2018-09-21T00:31:51.605Z,16.50
2018-09-21T00:33:54.915Z,16.50
2018-09-21T00:35:57.871Z,16.60
2018-09-21T00:38:00.870Z,16.60
2018-09-21T00:40:03.959Z,16.60
2018-09-21T00:42:06.985Z,16.60
2018-09-21T00:44:10.057Z,16.60
2018-09-21T00:46:14.920Z,16.60
2018-09-21T00:48:17.917Z,16.60
2018-09-21T00:50:20.913Z,16.50
2018-09-21T00:52:23.910Z,16.50
2018-09-21T00:54:26.920Z,16.50
2018-09-21T00:56:29.945Z,16.50
2018-09-21T00:58:32.925Z,16.50
2018-09-21T01:00:35.969Z,16.50
2018-09-21T01:02:39.006Z,16.40
2018-09-21T01:04:42.670Z,16.50
2018-09-21T01:06:45.657Z,16.50
2018-09-21T01:08:48.700Z,16.50
2018-09-21T01:10:51.800Z,16.50
2018-09-21T01:12:54.789Z,16.40
2018-09-21T01:14:57.792Z,16.40
2018-09-21T01:17:00.857Z,16.30
2018-09-21T01:19:04.581Z,16.30
2018-09-21T01:21:07.587Z,16.30
2018-09-21T01:23:10.597Z,16.30
2018-09-21T01:25:14.922Z,16.30
2018-09-21T01:27:17.931Z,16.30
2018-09-21T01:29:20.949Z,16.30
2018-09-21T01:31:24.225Z,16.30
2018-09-21T01:33:27.214Z,16.30
2018-09-21T01:35:30.234Z,16.20
2018-09-21T01:37:33.302Z,16.20
2018-09-21T01:39:36.310Z,16.30
2018-09-21T01:41:39.333Z,16.30
2018-09-21T01:43:43.955Z,16.20
2018-09-21T01:45:46.942Z,16.30
2018-09-21T01:47:49.931Z,16.30
2018-09-21T01:49:52.936Z,16.20
2018-09-21T01:51:55.894Z,16.20
2018-09-21T01:53:58.857Z,16.20
2018-09-21T01:56:01.885Z,16.20
2018-09-21T01:58:04.867Z,16.10
2018-09-21T02:00:08.031Z,16.10
2018-09-21T02:02:11.005Z,16.10
2018-09-21T02:04:15.306Z,16.10
2018-09-21T02:06:18.337Z,16.00
2018-09-21T02:08:21.290Z,16.10
2018-09-21T02:10:24.304Z,16.10
2018-09-21T02:12:27.391Z,16.30
2018-09-21T02:14:30.357Z,16.40
2018-09-21T02:16:33.377Z,16.30
2018-09-21T02:18:36.468Z,16.30
2018-09-21T02:20:39.453Z,16.40
2018-09-21T02:22:44.224Z,16.40
2018-09-21T02:24:47.198Z,16.40
2018-09-21T02:26:50.868Z,16.40
2018-09-21T02:28:53.910Z,16.50
2018-09-21T02:30:56.894Z,16.50
2018-09-21T02:32:59.878Z,16.50
2018-09-21T02:35:02.914Z,16.50
2018-09-21T02:37:05.941Z,16.40
2018-09-21T02:39:09.776Z,16.40
2018-09-21T02:41:14.630Z,16.40
2018-09-21T02:43:17.602Z,16.40
2018-09-21T02:45:20.612Z,16.40
2018-09-21T02:47:23.600Z,16.30
2018-09-21T02:49:26.607Z,16.30
2018-09-21T02:51:29.626Z,16.30
2018-09-21T02:53:32.666Z,16.40
2018-09-21T02:55:35.674Z,16.40
2018-09-21T02:57:38.656Z,16.40
2018-09-21T02:59:42.753Z,16.30
2018-09-21T03:01:45.706Z,16.30
2018-09-21T03:03:49.089Z,16.30
2018-09-21T03:05:52.162Z,16.40
2018-09-21T03:07:55.160Z,16.40
2018-09-21T03:09:58.173Z,16.30
2018-09-21T03:12:01.133Z,16.40
2018-09-21T03:14:04.150Z,16.30
2018-09-21T03:16:07.170Z,16.30
2018-09-21T03:18:10.177Z,16.30
2018-09-21T03:20:14.289Z,16.30
2018-09-21T03:22:17.325Z,16.30
2018-09-21T03:24:20.354Z,16.30
2018-09-21T03:26:23.339Z,16.40
2018-09-21T03:28:26.378Z,16.40
2018-09-21T03:30:29.425Z,16.40
2018-09-21T03:32:32.451Z,16.40
2018-09-21T03:34:35.446Z,16.40
2018-09-21T03:36:38.428Z,16.40
2018-09-21T03:38:43.154Z,16.50
2018-09-21T03:40:46.185Z,16.50
2018-09-21T03:42:49.377Z,16.50
2018-09-21T03:44:52.389Z,16.50
2018-09-21T03:46:55.377Z,16.50
2018-09-21T03:48:58.431Z,16.40
2018-09-21T03:51:01.471Z,16.50
2018-09-21T03:53:04.516Z,16.40
2018-09-21T03:55:07.502Z,16.50
2018-09-21T03:57:10.575Z,16.50
2018-09-21T03:59:14.964Z,16.50
2018-09-21T04:01:17.995Z,16.50
2018-09-21T04:03:21.049Z,16.40
2018-09-21T04:05:24.009Z,16.50
2018-09-21T04:07:27.017Z,16.40
2018-09-21T04:09:30.029Z,16.40
2018-09-21T04:11:33.022Z,16.50
2018-09-21T04:13:36.039Z,16.40
2018-09-21T04:15:39.387Z,16.40
2018-09-21T04:17:44.001Z,16.50
2018-09-21T04:19:47.025Z,16.50
2018-09-21T04:21:50.086Z,16.50
2018-09-21T04:23:53.086Z,16.50
2018-09-21T04:25:56.110Z,16.50
2018-09-21T04:27:59.201Z,16.60
2018-09-21T04:30:02.249Z,16.60
2018-09-21T04:32:05.600Z,16.60
2018-09-21T04:34:08.545Z,16.60
2018-09-21T04:36:13.273Z,16.70
2018-09-21T04:38:16.288Z,16.70
2018-09-21T04:40:19.406Z,16.70
2018-09-21T04:42:22.717Z,16.80
2018-09-21T04:44:25.694Z,16.90
2018-09-21T04:46:28.658Z,16.90
2018-09-21T04:48:31.995Z,16.90
2018-09-21T04:50:35.013Z,16.90
2018-09-21T04:52:38.497Z,16.90
2018-09-21T04:54:43.184Z,16.90
2018-09-21T04:56:46.262Z,17.00
2018-09-21T04:58:49.318Z,17.00
2018-09-21T05:00:52.426Z,17.00
2018-09-21T05:02:55.494Z,17.00
2018-09-21T05:04:58.622Z,17.10
2018-09-21T05:07:01.665Z,17.10
2018-09-21T05:09:07.486Z,17.20
2018-09-21T05:11:10.717Z,17.30
2018-09-21T05:13:14.807Z,17.30
2018-09-21T05:15:17.833Z,17.40
2018-09-21T05:17:21.001Z,17.50
2018-09-21T05:19:24.062Z,17.50
2018-09-21T05:21:27.123Z,17.50
2018-09-21T05:23:30.269Z,17.50
2018-09-21T05:25:33.653Z,17.60
2018-09-21T05:27:36.704Z,17.60
2018-09-21T05:29:39.645Z,17.70
2018-09-21T05:31:44.630Z,17.80
2018-09-21T05:33:47.609Z,17.90
2018-09-21T05:35:50.626Z,18.00
2018-09-21T05:37:53.677Z,18.10
2018-09-21T05:39:57.027Z,18.20
2018-09-21T05:42:00.045Z,18.20
2018-09-21T05:44:03.090Z,18.30
2018-09-21T05:46:06.524Z,18.30
2018-09-21T05:48:09.493Z,18.40
2018-09-21T05:50:13.864Z,18.60
2018-09-21T05:52:16.876Z,18.70
2018-09-21T05:54:19.883Z,18.80
2018-09-21T05:56:23.169Z,18.90
2018-09-21T05:58:26.421Z,19.00
2018-09-21T06:00:29.405Z,19.00
2018-09-21T06:02:32.450Z,19.10
2018-09-21T06:04:35.432Z,19.20
2018-09-21T06:06:39.434Z,19.20
2018-09-21T06:08:44.904Z,19.30
2018-09-21T06:10:48.806Z,19.30
2018-09-21T06:12:53.563Z,19.30
2018-09-21T06:14:59.349Z,19.40
2018-09-21T06:17:05.157Z,19.50
2018-09-21T06:19:09.193Z,19.60
2018-09-21T06:21:15.494Z,19.70
2018-09-21T06:23:22.926Z,19.80
2018-09-21T06:25:28.970Z,19.80
2018-09-21T06:27:32.003Z,19.90
2018-09-21T06:29:39.047Z,20.00
2018-09-21T06:31:45.570Z,20.10
2018-09-21T06:33:51.813Z,20.20
2018-09-21T06:35:57.271Z,20.30
2018-09-21T06:38:02.611Z,20.40
2018-09-21T06:40:08.570Z,20.60
2018-09-21T06:42:14.865Z,20.80
2018-09-21T06:44:18.439Z,20.90
2018-09-21T06:46:23.350Z,21.10
2018-09-21T06:48:29.694Z,21.20
2018-09-21T06:50:35.981Z,21.30
2018-09-21T06:52:43.088Z,21.40
2018-09-21T06:54:50.038Z,21.60
2018-09-21T06:56:55.087Z,21.80
2018-09-21T06:58:58.101Z,21.90
2018-09-21T07:01:01.131Z,22.00
2018-09-21T07:03:04.585Z,22.10
2018-09-21T07:05:13.725Z,22.30
2018-09-21T07:07:16.713Z,22.50
2018-09-21T07:09:19.705Z,22.60
2018-09-21T07:11:22.684Z,22.70
2018-09-21T07:13:25.702Z,22.80
2018-09-21T07:15:33.025Z,22.80
2018-09-21T07:17:50.541Z,22.90
2018-09-21T07:19:55.617Z,22.90
2018-09-21T07:21:58.931Z,23.00
2018-09-21T07:24:02.534Z,23.00
2018-09-21T07:26:07.877Z,23.00
2018-09-21T07:28:11.044Z,23.00
2018-09-21T07:30:16.045Z,23.00
2018-09-21T07:32:19.202Z,23.10
2018-09-21T07:34:22.189Z,23.10
2018-09-21T07:36:25.265Z,23.20
2018-09-21T07:38:28.256Z,23.30
2018-09-21T07:40:31.401Z,23.40
2018-09-21T07:42:34.409Z,23.40
2018-09-21T07:44:37.547Z,23.50
2018-09-21T07:46:40.430Z,23.50
2018-09-21T07:48:45.521Z,23.40
2018-09-21T07:50:48.478Z,23.30
2018-09-21T07:52:51.633Z,23.20
2018-09-21T07:54:54.676Z,23.20
2018-09-21T07:56:57.684Z,23.20
2018-09-21T07:59:00.925Z,23.30
2018-09-21T08:01:03.974Z,23.30
2018-09-21T08:03:07.010Z,23.40
2018-09-21T08:05:12.598Z,23.50
2018-09-21T08:07:15.645Z,23.60
2018-09-21T08:09:18.717Z,23.70
2018-09-21T08:11:21.782Z,23.70
2018-09-21T08:13:24.814Z,23.70
2018-09-21T08:15:28.279Z,23.70
2018-09-21T08:17:31.484Z,23.70
2018-09-21T08:19:34.707Z,23.70
2018-09-21T08:21:37.738Z,23.60
2018-09-21T08:23:40.842Z,23.60
2018-09-21T08:25:45.398Z,23.50
2018-09-21T08:27:48.417Z,23.60
2018-09-21T08:29:51.561Z,23.90
2018-09-21T08:31:54.718Z,24.20
2018-09-21T08:33:57.711Z,24.50
2018-09-21T08:36:00.902Z,24.70
2018-09-21T08:38:03.963Z,24.90
2018-09-21T08:40:07.590Z,25.10
2018-09-21T08:42:10.697Z,25.30
2018-09-21T08:44:14.369Z,25.50
2018-09-21T08:46:17.443Z,25.60
2018-09-21T08:48:20.594Z,25.70
2018-09-21T08:50:23.629Z,25.60
2018-09-21T08:52:26.598Z,25.60
2018-09-21T08:54:29.589Z,25.50
2018-09-21T08:56:32.673Z,25.30
2018-09-21T08:58:35.805Z,25.10
2018-09-21T09:00:38.917Z,25.30
2018-09-21T09:02:43.503Z,25.60
2018-09-21T09:04:46.510Z,25.90
2018-09-21T09:06:49.665Z,26.10
2018-09-21T09:08:52.686Z,26.30
2018-09-21T09:10:56.018Z,26.50
2018-09-21T09:12:58.989Z,26.70
2018-09-21T09:15:02.057Z,26.70
2018-09-21T09:17:06.130Z,26.60
2018-09-21T09:19:09.198Z,26.50
2018-09-21T09:21:14.050Z,26.50
2018-09-21T09:23:17.160Z,26.50
2018-09-21T09:25:20.069Z,26.80
2018-09-21T09:27:23.117Z,27.10
2018-09-21T09:29:26.137Z,27.30
2018-09-21T09:31:29.121Z,27.60
2018-09-21T09:33:32.113Z,27.90
2018-09-21T09:35:35.118Z,27.90
2018-09-21T09:37:38.141Z,28.10
2018-09-21T09:39:42.774Z,28.20
2018-09-21T09:41:46.000Z,28.40
2018-09-21T09:43:49.198Z,28.50
2018-09-21T09:46:02.313Z,28.50
2018-09-21T09:48:05.372Z,28.50
2018-09-21T09:50:08.447Z,28.70
2018-09-21T09:52:13.090Z,28.80
2018-09-21T09:54:16.050Z,28.90
2018-09-21T09:56:19.053Z,28.90
2018-09-21T09:58:22.046Z,29.00
2018-09-21T10:00:30.761Z,29.00
2018-09-21T10:02:33.793Z,28.90
2018-09-21T10:04:36.806Z,28.90
2018-09-21T10:06:40.581Z,28.90
2018-09-21T10:08:44.995Z,28.90
2018-09-21T10:10:48.483Z,29.00
2018-09-21T10:12:51.537Z,29.00
2018-09-21T10:14:54.772Z,29.00
2018-09-21T10:16:57.773Z,28.70
2018-09-21T10:19:00.757Z,28.80
2018-09-21T10:21:03.809Z,28.80
2018-09-21T10:23:07.006Z,28.70
2018-09-21T10:25:10.033Z,28.70
2018-09-21T10:27:14.529Z,28.90
2018-09-21T10:29:17.542Z,29.00
2018-09-21T10:31:20.640Z,29.10
2018-09-21T10:33:23.681Z,29.00
2018-09-21T10:35:26.694Z,28.90
2018-09-21T10:37:29.666Z,29.00
2018-09-21T10:39:32.677Z,29.10
2018-09-21T10:41:36.003Z,29.20
2018-09-21T10:43:39.033Z,29.30
2018-09-21T10:45:43.993Z,29.30
2018-09-21T10:47:46.997Z,29.30
2018-09-21T10:49:50.022Z,29.40
2018-09-21T10:51:52.986Z,29.50
2018-09-21T10:53:56.017Z,29.70
2018-09-21T10:55:59.046Z,29.70
2018-09-21T10:58:02.496Z,29.70
2018-09-21T11:00:06.779Z,29.40
2018-09-21T11:02:09.760Z,29.40
2018-09-21T11:04:14.054Z,29.50
2018-09-21T11:06:17.063Z,29.70
2018-09-21T11:08:20.050Z,30.00
2018-09-21T11:10:23.062Z,30.10
2018-09-21T11:12:26.074Z,30.30
2018-09-21T11:14:29.090Z,30.30
2018-09-21T11:16:32.110Z,30.50
2018-09-21T11:18:35.272Z,30.40
2018-09-21T11:20:38.258Z,30.20
2018-09-21T11:22:42.292Z,30.20
2018-09-21T11:24:45.302Z,30.10
2018-09-21T11:26:48.325Z,30.20
2018-09-21T11:28:51.334Z,30.20
2018-09-21T11:30:54.318Z,29.80
2018-09-21T11:32:57.375Z,29.50
2018-09-21T11:35:00.577Z,29.40
2018-09-21T11:37:03.566Z,29.20
2018-09-21T11:39:08.649Z,29.20
2018-09-21T11:41:12.381Z,29.50
2018-09-21T11:43:15.387Z,30.00
2018-09-21T11:45:18.462Z,30.10
2018-09-21T11:47:21.664Z,29.90
2018-09-21T11:49:24.572Z,29.70
2018-09-21T11:51:27.585Z,29.50
2018-09-21T11:53:30.619Z,29.60
2018-09-21T11:55:33.609Z,29.70
2018-09-21T11:57:36.876Z,29.90
2018-09-21T11:59:39.915Z,30.10
2018-09-21T12:01:44.702Z,29.90
2018-09-21T12:03:47.761Z,29.80
2018-09-21T12:05:50.818Z,29.70
2018-09-21T12:07:53.878Z,29.70
2018-09-21T12:09:56.869Z,29.70
2018-09-21T12:11:59.891Z,29.70
2018-09-21T12:14:03.077Z,29.80
2018-09-21T12:16:06.260Z,30.10
2018-09-21T12:18:09.293Z,30.10
2018-09-21T12:20:14.014Z,30.20
2018-09-21T12:22:17.334Z,30.10
2018-09-21T12:24:20.366Z,30.10
2018-09-21T12:26:23.460Z,30.10
2018-09-21T12:28:26.668Z,30.10
2018-09-21T12:30:29.743Z,30.00
2018-09-21T12:32:32.802Z,29.70
2018-09-21T12:34:35.833Z,29.40
2018-09-21T12:36:38.877Z,29.20
2018-09-21T12:38:43.455Z,28.90
2018-09-21T12:40:46.399Z,28.80
2018-09-21T12:42:49.711Z,28.90
2018-09-21T12:44:53.753Z,28.90
2018-09-21T12:46:56.789Z,28.90
2018-09-21T12:49:02.997Z,28.80
2018-09-21T12:51:06.035Z,28.70
2018-09-21T12:53:09.373Z,28.60
2018-09-21T12:55:14.153Z,28.50
2018-09-21T12:57:17.158Z,28.40
2018-09-21T12:59:20.153Z,28.30
2018-09-21T13:01:23.137Z,28.20
2018-09-21T13:03:26.237Z,28.10
2018-09-21T13:05:29.393Z,28.00
2018-09-21T13:07:32.429Z,28.00
2018-09-21T13:09:35.406Z,27.90
2018-09-21T13:11:38.411Z,27.90
2018-09-21T13:13:43.020Z,27.90
2018-09-21T13:15:46.025Z,27.90
2018-09-21T13:17:49.727Z,27.80
2018-09-21T13:19:52.942Z,27.80
2018-09-21T13:21:55.941Z,27.80
2018-09-21T13:23:59.324Z,27.70
2018-09-21T13:26:02.665Z,27.70
2018-09-21T13:28:06.190Z,27.60
2018-09-21T13:30:09.606Z,27.60
2018-09-21T13:32:14.463Z,27.50
2018-09-21T13:34:17.449Z,27.50
2018-09-21T13:36:20.533Z,27.40
2018-09-21T13:38:23.560Z,27.50
2018-09-21T13:40:26.573Z,27.40
2018-09-21T13:42:29.657Z,27.40
2018-09-21T13:44:32.717Z,27.40
2018-09-21T13:46:35.829Z,27.40
2018-09-21T13:48:39.265Z,27.30
2018-09-21T13:50:43.628Z,27.30
2018-09-21T13:52:46.666Z,27.20
2018-09-21T13:54:49.735Z,27.20
2018-09-21T13:56:52.828Z,27.20
2018-09-21T13:58:56.501Z,27.20
2018-09-21T14:00:59.520Z,27.30
2018-09-21T14:03:02.503Z,27.20
2018-09-21T14:05:06.592Z,27.20
2018-09-21T14:07:09.688Z,27.20
2018-09-21T14:09:13.809Z,27.20
2018-09-21T14:11:16.849Z,27.20
2018-09-21T14:13:19.871Z,27.20
2018-09-21T14:15:22.914Z,27.20
2018-09-21T14:17:25.977Z,27.20
2018-09-21T14:19:29.175Z,27.10
2018-09-21T14:21:32.194Z,27.10
2018-09-21T14:23:35.179Z,27.10
2018-09-21T14:25:38.201Z,27.10
2018-09-21T14:27:41.213Z,27.10
2018-09-21T14:29:45.159Z,27.10
2018-09-21T14:31:48.231Z,27.10
2018-09-21T14:33:51.316Z,27.10
2018-09-21T14:35:54.479Z,27.10
2018-09-21T14:37:57.515Z,27.10
2018-09-21T14:40:00.494Z,27.10
2018-09-21T14:42:03.512Z,27.20
2018-09-21T14:44:07.105Z,26.30
2018-09-21T14:46:10.118Z,24.60
2018-09-21T14:48:14.928Z,23.40
2018-09-21T14:50:18.022Z,22.20
2018-09-21T14:52:21.191Z,21.30
2018-09-21T14:54:24.183Z,20.60
2018-09-21T14:56:27.558Z,20.10
2018-09-21T14:58:30.590Z,19.70
2018-09-21T15:00:33.708Z,19.50
2018-09-21T15:02:36.786Z,19.10
2018-09-21T15:04:39.828Z,18.70
2018-09-21T15:06:44.322Z,18.30
2018-09-21T15:08:47.365Z,18.20
2018-09-21T15:10:50.428Z,18.00
2018-09-21T15:12:53.521Z,17.80
2018-09-21T15:14:56.535Z,17.70
2018-09-21T15:16:59.549Z,17.50
2018-09-21T15:19:02.598Z,17.50
2018-09-21T15:21:05.657Z,17.70
2018-09-21T15:23:08.732Z,17.60
2018-09-21T15:25:12.842Z,17.60
2018-09-21T15:27:16.074Z,17.50
2018-09-21T15:29:19.107Z,17.40
2018-09-21T15:31:22.155Z,17.30
2018-09-21T15:33:25.235Z,17.20
2018-09-21T15:35:28.451Z,17.10
2018-09-21T15:37:31.671Z,17.00
2018-09-21T15:39:34.759Z,16.80
2018-09-21T15:41:37.931Z,16.70
2018-09-21T15:43:41.064Z,16.70
2018-09-21T15:45:45.130Z,16.70
2018-09-21T15:47:48.167Z,16.50
2018-09-21T15:49:51.391Z,16.30
2018-09-21T15:51:54.455Z,16.20
2018-09-21T15:53:57.470Z,15.90
2018-09-21T15:56:00.657Z,15.70
2018-09-21T15:58:03.755Z,15.60
2018-09-21T16:00:07.279Z,15.50
2018-09-21T16:02:10.365Z,15.50
2018-09-21T16:04:15.165Z,15.40
2018-09-21T16:06:18.271Z,15.40
2018-09-21T16:08:21.787Z,15.30
2018-09-21T16:10:24.811Z,15.20
2018-09-21T16:12:27.851Z,15.10
2018-09-21T16:14:31.018Z,15.10
2018-09-21T16:16:34.466Z,15.00
2018-09-21T16:18:37.684Z,14.90
2018-09-21T16:20:41.789Z,14.80
2018-09-21T16:22:44.975Z,14.80
2018-09-21T16:24:48.181Z,14.70
2018-09-21T16:26:51.752Z,14.60
2018-09-21T16:28:54.831Z,14.60
2018-09-21T16:30:57.907Z,14.60
2018-09-21T16:33:01.045Z,14.60
2018-09-21T16:35:04.299Z,14.60
2018-09-21T16:37:07.482Z,14.50
2018-09-21T16:39:13.420Z,14.50
2018-09-21T16:41:22.675Z,14.50
2018-09-21T16:43:34.771Z,14.50
2018-09-21T16:45:45.196Z,14.40
2018-09-21T16:47:54.322Z,14.50
2018-09-21T16:50:03.700Z,14.60
2018-09-21T16:52:08.193Z,14.60
2018-09-21T16:54:33.961Z,14.60
2018-09-21T16:59:36.822Z,14.50
2018-09-21T17:01:49.136Z,14.50
2018-09-21T17:04:04.705Z,14.60
2018-09-21T17:06:21.323Z,14.50
2018-09-21T17:08:38.549Z,14.30
2018-09-21T17:10:55.993Z,14.10
2018-09-21T17:13:24.951Z,14.00
2018-09-21T17:15:47.242Z,13.90
2018-09-21T17:17:52.138Z,13.90
2018-09-21T17:19:55.378Z,13.90
2018-09-21T17:21:58.412Z,13.90
2018-09-21T17:24:01.438Z,14.00
2018-09-21T17:26:04.551Z,14.00
2018-09-21T17:28:07.697Z,14.10
2018-09-21T17:30:10.768Z,14.10
2018-09-21T17:32:15.570Z,14.00
2018-09-21T17:34:18.573Z,13.90
2018-09-21T17:36:21.618Z,13.90
2018-09-21T17:38:24.645Z,13.90
2018-09-21T17:40:27.718Z,13.90
2018-09-21T17:42:31.614Z,13.90
2018-09-21T17:44:34.783Z,13.90
2018-09-21T17:46:37.909Z,14.00
2018-09-21T17:48:42.708Z,14.00
2018-09-21T17:50:45.708Z,14.00
2018-09-21T17:52:48.818Z,13.90
2018-09-21T17:54:52.016Z,13.90
2018-09-21T17:56:55.235Z,13.80
2018-09-21T17:58:58.289Z,13.80
2018-09-21T18:01:01.433Z,13.70
2018-09-21T18:03:04.555Z,13.70
2018-09-21T18:05:07.615Z,13.70
2018-09-21T18:07:15.324Z,13.70
2018-09-21T18:09:18.344Z,13.70
2018-09-21T18:11:21.681Z,13.70
2018-09-21T18:13:24.744Z,13.80
2018-09-21T18:15:27.747Z,13.80
2018-09-21T18:17:30.831Z,13.80
2018-09-21T18:19:34.106Z,13.70
2018-09-21T18:21:42.895Z,13.70
2018-09-21T18:23:46.577Z,13.70
2018-09-21T18:25:50.436Z,13.70
2018-09-21T18:27:53.432Z,13.70
2018-09-21T18:29:56.429Z,13.70
2018-09-21T18:31:59.784Z,13.70
2018-09-21T18:34:02.839Z,13.60
2018-09-21T18:36:05.942Z,13.60
2018-09-21T18:38:09.014Z,13.50
2018-09-21T18:40:13.730Z,13.50
2018-09-21T18:42:16.876Z,13.60
2018-09-21T18:44:20.038Z,13.60
2018-09-21T18:46:23.158Z,13.70
2018-09-21T18:48:26.688Z,13.60
2018-09-21T18:50:29.821Z,13.60
2018-09-21T18:52:32.848Z,13.60
2018-09-21T18:54:35.951Z,13.60
2018-09-21T18:56:39.116Z,13.60
2018-09-21T18:58:43.738Z,13.60
2018-09-21T19:00:46.887Z,13.60
2018-09-21T19:02:49.936Z,13.50
2018-09-21T19:04:52.972Z,13.40
2018-09-21T19:06:56.288Z,13.40
2018-09-21T19:09:00.552Z,13.40
2018-09-21T19:11:05.666Z,13.40
2018-09-21T19:13:08.778Z,13.40
2018-09-21T19:15:13.444Z,13.40
2018-09-21T19:17:16.613Z,13.40
2018-09-21T19:19:19.871Z,13.40
2018-09-21T19:21:22.885Z,13.40
2018-09-21T19:23:27.057Z,13.40
2018-09-21T19:25:30.132Z,13.40
2018-09-21T19:27:33.289Z,13.40
2018-09-21T19:29:36.390Z,13.30
2018-09-21T19:31:39.433Z,13.40
2018-09-21T19:33:43.820Z,13.30
2018-09-21T19:35:46.899Z,13.30
2018-09-21T19:37:49.940Z,13.30
2018-09-21T19:39:53.165Z,13.30
2018-09-21T19:41:56.324Z,13.30
2018-09-21T19:43:59.446Z,13.30
2018-09-21T19:46:02.635Z,13.30
2018-09-21T19:48:05.864Z,13.30
2018-09-21T19:50:08.944Z,13.30
2018-09-21T19:52:13.831Z,13.30
2018-09-21T19:54:17.061Z,13.20
2018-09-21T19:56:20.280Z,13.20
2018-09-21T19:58:23.562Z,13.20
2018-09-21T20:00:26.615Z,13.30
2018-09-21T20:02:29.802Z,13.20
2018-09-21T20:04:33.086Z,13.30
2018-09-21T20:06:36.136Z,13.20
2018-09-21T20:08:39.180Z,13.20
2018-09-21T20:10:43.472Z,13.20
2018-09-21T20:12:46.595Z,13.20
2018-09-21T20:14:49.867Z,13.20
2018-09-21T20:16:52.894Z,13.20
2018-09-21T20:18:55.927Z,13.20
2018-09-21T20:20:58.992Z,13.10
2018-09-21T20:23:02.036Z,13.10
2018-09-21T20:25:05.225Z,13.00
2018-09-21T20:27:08.599Z,13.00
2018-09-21T20:29:13.387Z,13.00
2018-09-21T20:31:22.128Z,13.00
2018-09-21T20:33:28.569Z,13.00
2018-09-21T20:35:31.667Z,12.90
2018-09-21T20:37:34.764Z,12.90
2018-09-21T20:39:37.846Z,12.90
2018-09-21T20:41:42.566Z,12.90
2018-09-21T20:43:45.654Z,12.80
2018-09-21T20:45:48.758Z,12.80
2018-09-21T20:47:51.821Z,12.80
2018-09-21T20:49:54.947Z,12.80
2018-09-21T20:51:57.999Z,12.70
2018-09-21T20:54:01.119Z,12.70
2018-09-21T20:56:04.218Z,12.70
2018-09-21T20:58:07.350Z,12.70
2018-09-21T21:00:12.619Z,12.70
2018-09-21T21:02:15.732Z,12.70
2018-09-21T21:04:18.915Z,12.60
2018-09-21T21:06:22.003Z,12.60
2018-09-21T21:08:25.269Z,12.60
2018-09-21T21:10:28.508Z,12.60
2018-09-21T21:12:31.559Z,12.60
2018-09-21T21:14:34.629Z,12.50
2018-09-21T21:16:37.734Z,12.50
2018-09-21T21:18:41.300Z,12.50
2018-09-21T21:20:44.310Z,12.50
2018-09-21T21:22:47.372Z,12.40
2018-09-21T21:24:50.423Z,12.40
2018-09-21T21:26:53.504Z,12.40
2018-09-21T21:28:56.550Z,12.30
2018-09-21T21:30:59.634Z,12.30
2018-09-21T21:33:02.899Z,12.30
2018-09-21T21:35:06.016Z,12.30
2018-09-21T21:37:09.418Z,12.30
2018-09-21T21:39:13.937Z,12.20
2018-09-21T21:41:17.315Z,12.30
2018-09-21T21:43:20.486Z,12.30
2018-09-21T21:45:23.840Z,12.20
2018-09-21T21:47:27.143Z,12.20
2018-09-21T21:49:30.219Z,12.20
2018-09-21T21:51:33.430Z,12.20
2018-09-21T21:53:36.481Z,12.20
2018-09-21T21:55:39.721Z,12.10
2018-09-21T21:57:44.490Z,12.10
2018-09-21T21:59:47.679Z,12.10
2018-09-21T22:01:50.813Z,12.00
2018-09-21T22:03:54.149Z,12.00
2018-09-21T22:05:57.196Z,12.00
2018-09-21T22:08:00.495Z,12.00
2018-09-21T22:10:05.664Z,12.00
2018-09-21T22:12:14.444Z,11.90
2018-09-21T22:14:17.539Z,11.90
2018-09-21T22:16:20.650Z,12.00
2018-09-21T22:18:23.699Z,11.90
2018-09-21T22:20:26.807Z,11.80
2018-09-21T22:22:29.923Z,11.80
2018-09-21T22:24:33.175Z,11.70
2018-09-21T22:26:36.692Z,11.60
2018-09-21T22:28:39.699Z,11.50
2018-09-21T22:30:44.185Z,11.50
2018-09-21T22:32:47.597Z,11.40
2018-09-21T22:34:50.687Z,11.40
2018-09-21T22:36:53.710Z,11.30
2018-09-21T22:38:56.795Z,11.30
2018-09-21T22:40:59.946Z,11.30
2018-09-21T22:43:03.067Z,11.30
2018-09-21T22:45:06.259Z,11.30
2018-09-21T22:47:09.364Z,11.30
2018-09-21T22:49:18.398Z,11.20
2018-09-21T22:51:21.503Z,11.20
2018-09-21T22:53:24.594Z,11.20
2018-09-21T22:55:27.735Z,11.20
2018-09-21T22:57:30.943Z,11.20
2018-09-21T22:59:34.396Z,11.20
2018-09-21T23:01:37.542Z,11.20
2018-09-21T23:03:42.292Z,11.20
2018-09-21T23:05:45.403Z,11.20
2018-09-21T23:07:48.499Z,11.20
2018-09-21T23:09:51.681Z,11.20
2018-09-21T23:11:54.770Z,11.30
2018-09-21T23:13:57.897Z,11.30
2018-09-21T23:16:01.010Z,11.30
2018-09-21T23:18:04.162Z,11.30
2018-09-21T23:20:07.303Z,11.20
2018-09-21T23:22:12.113Z,11.20
2018-09-21T23:24:15.564Z,11.20
2018-09-21T23:26:18.707Z,11.20
2018-09-21T23:28:21.861Z,11.10
2018-09-21T23:30:25.200Z,11.10
2018-09-21T23:32:28.428Z,11.00
2018-09-21T23:34:31.624Z,11.00
2018-09-21T23:36:35.035Z,11.00
2018-09-21T23:38:38.130Z,11.00
2018-09-21T23:40:42.941Z,10.90
2018-09-21T23:42:46.097Z,10.90
2018-09-21T23:44:49.232Z,10.90
2018-09-21T23:46:52.366Z,10.80
2018-09-21T23:48:55.471Z,10.70
2018-09-21T23:50:58.575Z,10.60
2018-09-21T23:53:01.745Z,10.60
2018-09-21T23:55:05.459Z,10.60
2018-09-21T23:57:08.611Z,10.60
2018-09-21T23:59:13.290Z,10.60
